createdAt,value
2022-09-16T04:01:06.192Z,58.28
2022-09-16T04:03:38.238Z,58.27
2022-09-16T04:06:07.528Z,58.27
2022-09-16T04:08:37.885Z,58.34
2022-09-16T04:11:07.886Z,58.53
2022-09-16T04:13:36.774Z,58.37
2022-09-16T04:16:06.962Z,58.45
2022-09-16T04:18:36.767Z,58.44
2022-09-16T04:21:05.658Z,58.59
2022-09-16T04:23:34.677Z,58.76
2022-09-16T04:26:05.020Z,58.64
2022-09-16T04:28:34.970Z,58.63
2022-09-16T04:31:06.051Z,58.66
2022-09-16T04:33:36.094Z,58.76
2022-09-16T04:36:11.173Z,58.72
2022-09-16T04:38:42.805Z,58.94
2022-09-16T04:41:20.791Z,58.72
2022-09-16T04:43:59.094Z,58.94
2022-09-16T04:46:30.714Z,58.88
2022-09-16T04:49:00.927Z,59.06
2022-09-16T04:51:30.437Z,58.99
2022-09-16T04:54:01.933Z,58.99
2022-09-16T04:56:32.859Z,59.06
2022-09-16T04:59:05.072Z,59.01
2022-09-16T05:01:38.043Z,59.04
2022-09-16T05:04:08.831Z,59.14
2022-09-16T05:06:41.079Z,58.93
2022-09-16T05:09:13.540Z,59.04
2022-09-16T05:11:42.635Z,59.16
2022-09-16T05:14:16.212Z,59.25
2022-09-16T05:16:45.854Z,59.24
2022-09-16T05:19:15.611Z,59.11
2022-09-16T05:21:44.491Z,59.17
2022-09-16T05:24:15.394Z,59.17
2022-09-16T05:26:44.918Z,59.21
2022-09-16T05:29:17.175Z,59.14
2022-09-16T05:31:50.104Z,59.40
2022-09-16T05:34:28.785Z,59.31
2022-09-16T05:36:57.872Z,59.44
2022-09-16T05:39:26.913Z,59.33
2022-09-16T05:42:00.354Z,59.31
2022-09-16T05:44:29.833Z,59.39
2022-09-16T05:46:58.681Z,59.33
2022-09-16T05:49:27.497Z,59.56
2022-09-16T05:51:57.203Z,59.39
2022-09-16T05:54:25.980Z,59.32
2022-09-16T05:56:55.501Z,59.34
2022-09-16T05:59:24.875Z,59.35
2022-09-16T06:01:54.381Z,59.23
2022-09-16T06:04:23.656Z,59.28
2022-09-16T06:06:52.741Z,59.23
2022-09-16T06:09:24.699Z,59.27
2022-09-16T06:12:01.701Z,59.08
2022-09-16T06:14:31.886Z,59.06
2022-09-16T06:17:02.468Z,58.87
2022-09-16T06:19:31.791Z,59.00
2022-09-16T06:22:01.049Z,58.68
2022-09-16T06:24:32.962Z,58.52
2022-09-16T06:27:02.774Z,58.48
2022-09-16T06:29:32.173Z,58.34
2022-09-16T06:32:01.114Z,58.42
2022-09-16T06:34:31.479Z,58.48
2022-09-16T06:37:00.629Z,58.56
2022-09-16T06:39:29.463Z,58.29
2022-09-16T06:42:00.950Z,58.31
2022-09-16T06:44:32.674Z,58.31
2022-09-16T06:47:01.986Z,58.22
2022-09-16T06:49:31.687Z,58.05
2022-09-16T06:52:00.279Z,58.03
2022-09-16T06:54:28.703Z,58.07
2022-09-16T06:56:58.314Z,58.25
2022-09-16T06:59:26.813Z,57.96
2022-09-16T07:01:56.035Z,57.92
2022-09-16T07:04:24.815Z,57.93
2022-09-16T07:07:10.587Z,57.97
2022-09-16T07:09:41.892Z,58.03
2022-09-16T07:12:10.732Z,58.03
2022-09-16T07:14:39.832Z,58.04
2022-09-16T07:17:09.162Z,57.81
2022-09-16T07:19:38.123Z,57.82
2022-09-16T07:22:07.328Z,57.53
2022-09-16T07:24:36.662Z,57.49
2022-09-16T07:27:05.910Z,57.65
2022-09-16T07:29:34.516Z,57.77
2022-09-16T07:32:04.083Z,57.61
2022-09-16T07:34:32.687Z,57.39
2022-09-16T07:37:01.445Z,57.35
2022-09-16T07:39:30.079Z,57.35
2022-09-16T07:42:03.863Z,57.26
2022-09-16T07:44:35.431Z,57.10
2022-09-16T07:47:05.278Z,56.88
2022-09-16T07:49:34.117Z,56.82
2022-09-16T07:52:03.354Z,56.90
2022-09-16T07:54:32.851Z,56.85
2022-09-16T07:57:02.264Z,56.82
2022-09-16T07:59:31.522Z,56.58
2022-09-16T08:02:01.251Z,56.77
2022-09-16T08:04:30.562Z,56.34
2022-09-16T08:06:59.169Z,56.19
2022-09-16T08:09:45.142Z,56.22
2022-09-16T08:12:18.475Z,56.13
2022-09-16T08:14:47.706Z,56.13
2022-09-16T08:17:17.248Z,55.77
2022-09-16T08:19:46.411Z,56.07
2022-09-16T08:22:15.748Z,55.94
2022-09-16T08:24:45.429Z,55.89
2022-09-16T08:27:14.804Z,55.88
2022-09-16T08:29:46.133Z,55.70
2022-09-16T08:32:15.635Z,55.53
2022-09-16T08:34:45.407Z,55.54
2022-09-16T08:37:14.627Z,55.35
2022-09-16T08:39:44.005Z,55.34
2022-09-16T08:42:48.356Z,55.26
2022-09-16T08:45:31.196Z,55.23
2022-09-16T08:48:08.674Z,55.04
2022-09-16T08:50:45.705Z,54.82
2022-09-16T08:53:38.742Z,54.66
2022-09-16T08:56:21.122Z,54.66
2022-09-16T08:58:57.199Z,54.68
2022-09-16T09:01:32.225Z,54.49
2022-09-16T09:04:02.959Z,54.15
2022-09-16T09:07:07.048Z,54.10
2022-09-16T09:09:42.874Z,54.34
2022-09-16T09:12:41.610Z,53.92
2022-09-16T09:15:32.173Z,53.70
2022-09-16T09:18:34.066Z,53.63
2022-09-16T09:21:03.507Z,53.62
2022-09-16T09:23:48.206Z,53.65
2022-09-16T09:26:22.917Z,53.48
2022-09-16T09:29:05.676Z,53.32
2022-09-16T09:31:57.450Z,53.05
2022-09-16T09:34:42.033Z,52.91
2022-09-16T09:37:23.122Z,52.89
2022-09-16T09:40:01.673Z,52.84
2022-09-16T09:42:51.062Z,52.67
2022-09-16T09:45:37.517Z,52.62
2022-09-16T09:48:21.166Z,52.43
2022-09-16T09:50:53.131Z,52.33
2022-09-16T09:53:34.740Z,52.26
2022-09-16T09:56:35.819Z,52.21
2022-09-16T09:59:20.854Z,51.95
2022-09-16T10:01:58.891Z,51.69
2022-09-16T10:04:37.249Z,51.62
2022-09-16T10:07:07.884Z,51.55
2022-09-16T10:09:46.274Z,51.46
2022-09-16T10:12:15.673Z,51.54
2022-09-16T10:14:47.190Z,51.53
2022-09-16T10:17:18.517Z,51.35
2022-09-16T10:20:11.326Z,51.18
2022-09-16T10:22:41.027Z,51.20
2022-09-16T10:25:25.470Z,51.22
2022-09-16T10:27:58.848Z,51.02
2022-09-16T10:30:43.139Z,50.84
2022-09-16T10:33:25.658Z,50.74
2022-09-16T10:36:01.307Z,50.71
2022-09-16T10:38:54.121Z,50.72
2022-09-16T10:41:47.048Z,50.68
2022-09-16T10:44:38.692Z,50.64
2022-09-16T10:47:21.212Z,50.48
2022-09-16T10:49:54.771Z,50.47
2022-09-16T10:52:26.892Z,50.56
2022-09-16T10:54:57.167Z,50.45
2022-09-16T10:57:26.368Z,50.26
2022-09-16T11:00:10.488Z,50.32
2022-09-16T11:02:59.191Z,50.08
2022-09-16T11:05:46.112Z,50.06
2022-09-16T11:08:59.467Z,49.98
2022-09-16T11:11:43.776Z,49.76
2022-09-16T11:14:18.457Z,49.67
2022-09-16T11:17:37.215Z,49.68
2022-09-16T11:20:28.541Z,49.61
2022-09-16T11:23:08.926Z,49.52
2022-09-16T11:25:43.819Z,49.39
2022-09-16T11:28:38.366Z,49.40
2022-09-16T11:31:10.136Z,49.29
2022-09-16T11:34:03.974Z,49.28
2022-09-16T11:36:47.348Z,49.20
2022-09-16T11:39:45.291Z,49.06
2022-09-16T11:42:37.712Z,48.87
2022-09-16T11:45:38.611Z,48.80
2022-09-16T11:48:20.774Z,48.88
2022-09-16T11:50:56.184Z,48.63
2022-09-16T11:53:42.302Z,48.49
2022-09-16T11:56:19.859Z,48.28
2022-09-16T11:58:58.129Z,48.13
2022-09-16T12:01:35.885Z,47.80
2022-09-16T12:04:17.200Z,47.82
2022-09-16T12:06:49.373Z,47.85
2022-09-16T12:09:25.638Z,47.62
2022-09-16T12:12:05.123Z,47.50
2022-09-16T12:14:42.951Z,47.48
2022-09-16T12:17:29.475Z,47.44
2022-09-16T12:20:05.981Z,47.25
2022-09-16T12:22:35.285Z,47.06
2022-09-16T12:25:09.858Z,46.97
2022-09-16T12:27:49.750Z,47.00
2022-09-16T12:30:31.183Z,47.00
2022-09-16T12:33:22.426Z,46.83
2022-09-16T12:36:00.683Z,46.86
2022-09-16T12:38:31.699Z,46.66
2022-09-16T12:41:33.909Z,46.66
2022-09-16T12:44:35.713Z,46.47
2022-09-16T12:47:23.633Z,46.59
2022-09-16T12:50:29.961Z,46.34
2022-09-16T12:53:47.339Z,46.30
2022-09-16T12:56:51.737Z,46.17
2022-09-16T12:59:31.286Z,46.09
2022-09-16T13:02:18.789Z,45.96
2022-09-16T13:04:57.937Z,45.82
2022-09-16T13:07:31.021Z,45.84
2022-09-16T13:10:55.042Z,45.90
2022-09-16T13:13:50.681Z,45.56
2022-09-16T13:16:57.806Z,45.29
2022-09-16T13:19:38.841Z,45.32
2022-09-16T13:22:28.885Z,45.36
2022-09-16T13:25:29.965Z,45.19
2022-09-16T13:28:05.427Z,45.05
2022-09-16T13:30:39.494Z,44.97
2022-09-16T13:33:10.808Z,44.93
2022-09-16T13:35:42.653Z,44.95
2022-09-16T13:38:17.804Z,44.80
2022-09-16T13:41:02.436Z,44.80
2022-09-16T13:43:34.513Z,44.60
2022-09-16T13:46:10.446Z,44.52
2022-09-16T13:49:06.064Z,44.54
2022-09-16T13:51:46.048Z,44.43
2022-09-16T13:54:27.442Z,44.28
2022-09-16T13:57:12.101Z,44.24
2022-09-16T13:59:56.380Z,44.09
2022-09-16T14:02:51.573Z,44.09
2022-09-16T14:05:45.383Z,44.12
2022-09-16T14:08:37.918Z,44.07
2022-09-16T14:11:22.923Z,44.06
2022-09-16T14:14:05.207Z,43.97
2022-09-16T14:16:41.069Z,43.94
2022-09-16T14:19:22.545Z,43.95
2022-09-16T14:22:18.811Z,43.92
2022-09-16T14:24:52.940Z,43.79
2022-09-16T14:27:43.186Z,43.72
2022-09-16T14:30:17.955Z,43.72
2022-09-16T14:32:49.153Z,43.75
2022-09-16T14:35:26.876Z,43.71
2022-09-16T14:38:01.054Z,43.67
2022-09-16T14:40:30.476Z,43.63
2022-09-16T14:43:08.672Z,43.53
2022-09-16T14:45:38.561Z,43.35
2022-09-16T14:48:10.937Z,43.39
2022-09-16T14:50:45.031Z,43.30
2022-09-16T14:53:35.392Z,43.35
2022-09-16T14:56:06.709Z,43.36
2022-09-16T14:58:37.474Z,43.48
2022-09-16T15:01:17.586Z,43.37
2022-09-16T15:04:01.470Z,43.19
2022-09-16T15:06:35.743Z,43.20
2022-09-16T15:09:15.417Z,43.28
2022-09-16T15:11:54.042Z,43.29
2022-09-16T15:14:26.544Z,43.28
2022-09-16T15:17:00.854Z,43.33
2022-09-16T15:19:37.063Z,43.29
2022-09-16T15:22:14.142Z,43.12
2022-09-16T15:24:48.716Z,43.24
2022-09-16T15:27:29.263Z,43.17
2022-09-16T15:30:01.418Z,42.99
2022-09-16T15:32:32.165Z,43.12
2022-09-16T15:35:12.805Z,43.18
2022-09-16T15:37:41.687Z,43.22
2022-09-16T15:40:33.581Z,43.16
2022-09-16T15:43:22.794Z,43.27
2022-09-16T15:46:04.196Z,43.16
2022-09-16T15:48:37.068Z,43.20
2022-09-16T15:51:28.399Z,43.07
2022-09-16T15:54:31.945Z,43.05
2022-09-16T15:57:06.878Z,43.03
2022-09-16T15:59:48.903Z,43.16
2022-09-16T16:02:33.062Z,42.91
2022-09-16T16:05:18.251Z,43.03
2022-09-16T16:07:52.812Z,43.02
2022-09-16T16:10:36.038Z,42.98
2022-09-16T16:13:05.027Z,42.92
2022-09-16T16:15:36.851Z,42.88
2022-09-16T16:18:11.678Z,42.86
2022-09-16T16:20:41.874Z,42.59
2022-09-16T16:23:13.470Z,42.83
2022-09-16T16:25:42.528Z,42.84
2022-09-16T16:28:11.755Z,42.88
2022-09-16T16:30:41.629Z,42.89
2022-09-16T16:33:10.651Z,42.92
2022-09-16T16:35:39.137Z,42.97
2022-09-16T16:38:08.300Z,43.02
2022-09-16T16:40:37.873Z,43.07
2022-09-16T16:43:06.664Z,43.07
2022-09-16T16:45:35.139Z,43.22
2022-09-16T16:48:04.243Z,43.30
2022-09-16T16:51:04.057Z,43.39
2022-09-16T16:53:33.300Z,43.54
2022-09-16T16:56:06.289Z,43.51
2022-09-16T16:58:37.636Z,43.46
2022-09-16T17:01:10.566Z,43.50
2022-09-16T17:03:40.748Z,43.29
2022-09-16T17:06:10.226Z,43.34
2022-09-16T17:08:38.793Z,43.26
2022-09-16T17:11:08.016Z,43.18
2022-09-16T17:13:38.245Z,42.98
2022-09-16T17:16:08.583Z,43.00
2022-09-16T17:18:39.651Z,43.11
2022-09-16T17:21:14.051Z,42.94
2022-09-16T17:23:45.669Z,42.99
2022-09-16T17:26:16.067Z,43.00
2022-09-16T17:28:47.484Z,42.92
2022-09-16T17:31:18.115Z,42.96
2022-09-16T17:33:49.065Z,43.06
2022-09-16T17:36:21.321Z,42.93
2022-09-16T17:39:15.705Z,42.85
2022-09-16T17:41:48.191Z,42.87
2022-09-16T17:44:19.708Z,42.94
2022-09-16T17:46:50.388Z,42.85
2022-09-16T17:49:22.402Z,42.97
2022-09-16T17:51:53.992Z,42.96
2022-09-16T17:54:23.649Z,43.05
2022-09-16T17:56:53.500Z,43.04
2022-09-16T17:59:23.398Z,43.22
2022-09-16T18:01:54.716Z,43.21
2022-09-16T18:04:23.215Z,43.22
2022-09-16T18:06:53.114Z,43.29
2022-09-16T18:09:22.363Z,43.40
2022-09-16T18:11:50.935Z,43.37
2022-09-16T18:14:23.283Z,43.37
2022-09-16T18:16:52.675Z,43.34
2022-09-16T18:19:21.271Z,43.37
2022-09-16T18:21:50.820Z,43.59
2022-09-16T18:24:20.592Z,43.56
2022-09-16T18:26:50.048Z,43.55
2022-09-16T18:29:19.723Z,43.61
2022-09-16T18:31:50.288Z,43.61
2022-09-16T18:34:19.501Z,43.61
2022-09-16T18:36:48.099Z,43.81
2022-09-16T18:39:18.768Z,43.84
2022-09-16T18:41:47.947Z,43.87
2022-09-16T18:44:24.063Z,43.91
2022-09-16T18:46:54.013Z,43.92
2022-09-16T18:49:24.467Z,44.00
2022-09-16T18:51:54.168Z,43.94
2022-09-16T18:54:28.319Z,43.94
2022-09-16T18:56:59.482Z,44.19
2022-09-16T18:59:31.477Z,44.13
2022-09-16T19:02:04.309Z,44.04
2022-09-16T19:04:38.068Z,44.27
2022-09-16T19:07:08.874Z,44.19
2022-09-16T19:09:42.132Z,44.36
2022-09-16T19:12:13.721Z,44.34
2022-09-16T19:14:42.875Z,44.35
2022-09-16T19:17:11.736Z,44.58
2022-09-16T19:19:41.238Z,44.55
2022-09-16T19:22:10.546Z,44.64
2022-09-16T19:24:39.502Z,44.53
2022-09-16T19:27:08.540Z,44.75
2022-09-16T19:29:37.759Z,44.84
2022-09-16T19:32:07.123Z,44.89
2022-09-16T19:34:36.567Z,44.85
2022-09-16T19:37:05.904Z,45.03
2022-09-16T19:39:35.591Z,45.13
2022-09-16T19:42:05.993Z,45.25
2022-09-16T19:44:35.473Z,45.19
2022-09-16T19:47:04.895Z,45.16
2022-09-16T19:49:35.042Z,45.35
2022-09-16T19:52:04.350Z,45.42
2022-09-16T19:54:33.165Z,45.35
2022-09-16T19:57:03.209Z,45.54
2022-09-16T19:59:32.600Z,45.51
2022-09-16T20:02:01.547Z,45.57
2022-09-16T20:04:30.438Z,45.75
2022-09-16T20:06:59.235Z,45.76
2022-09-16T20:09:30.319Z,45.89
2022-09-16T20:11:59.657Z,45.82
2022-09-16T20:14:34.288Z,46.06
2022-09-16T20:17:04.186Z,46.13
2022-09-16T20:19:34.090Z,46.25
2022-09-16T20:22:03.534Z,46.10
2022-09-16T20:24:32.403Z,46.20
2022-09-16T20:27:01.822Z,46.26
2022-09-16T20:29:32.279Z,46.29
2022-09-16T20:32:01.417Z,46.22
2022-09-16T20:34:32.010Z,46.28
2022-09-16T20:37:00.788Z,46.31
2022-09-16T20:39:29.925Z,46.50
2022-09-16T20:42:00.488Z,46.47
2022-09-16T20:44:28.959Z,46.48
2022-09-16T20:46:58.042Z,46.64
2022-09-16T20:49:30.462Z,46.63
2022-09-16T20:52:00.762Z,46.60
2022-09-16T20:54:30.203Z,46.81
2022-09-16T20:56:59.997Z,46.80
2022-09-16T20:59:29.750Z,46.83
2022-09-16T21:02:04.907Z,46.87
2022-09-16T21:04:34.169Z,46.90
2022-09-16T21:07:04.106Z,47.19
2022-09-16T21:09:33.132Z,46.94
2022-09-16T21:12:02.691Z,47.00
2022-09-16T21:14:32.590Z,47.10
2022-09-16T21:17:01.683Z,47.13
2022-09-16T21:19:32.025Z,47.20
2022-09-16T21:22:01.319Z,47.19
2022-09-16T21:24:30.642Z,47.25
2022-09-16T21:26:59.703Z,47.27
2022-09-16T21:29:29.384Z,47.36
2022-09-16T21:31:58.695Z,47.27
2022-09-16T21:34:27.487Z,47.41
2022-09-16T21:36:59.554Z,47.49
2022-09-16T21:39:29.334Z,47.69
2022-09-16T21:41:59.350Z,47.58
2022-09-16T21:44:28.792Z,47.56
2022-09-16T21:46:57.524Z,47.61
2022-09-16T21:49:29.476Z,47.66
2022-09-16T21:51:59.505Z,47.59
2022-09-16T21:54:29.788Z,47.80
2022-09-16T21:56:59.781Z,47.74
2022-09-16T21:59:28.707Z,47.83
2022-09-16T22:02:02.879Z,47.83
2022-09-16T22:04:32.739Z,47.89
2022-09-16T22:07:01.753Z,47.89
2022-09-16T22:09:30.775Z,48.02
2022-09-16T22:12:00.366Z,48.01
2022-09-16T22:14:30.120Z,48.20
2022-09-16T22:16:59.879Z,48.13
2022-09-16T22:19:28.618Z,48.32
2022-09-16T22:21:57.822Z,48.44
2022-09-16T22:24:27.231Z,48.43
2022-09-16T22:26:56.288Z,48.52
2022-09-16T22:29:25.068Z,48.41
2022-09-16T22:31:54.121Z,48.56
2022-09-16T22:34:23.691Z,48.56
2022-09-16T22:36:53.556Z,48.66
2022-09-16T22:39:23.293Z,48.82
2022-09-16T22:41:52.476Z,48.91
2022-09-16T22:44:21.710Z,48.93
2022-09-16T22:46:52.027Z,48.95
2022-09-16T22:49:21.317Z,48.98
2022-09-16T22:51:50.180Z,49.01
2022-09-16T22:54:19.178Z,49.15
2022-09-16T22:56:48.483Z,49.23
2022-09-16T22:59:19.523Z,49.31
2022-09-16T23:01:49.086Z,49.21
2022-09-16T23:04:19.434Z,49.48
2022-09-16T23:06:48.454Z,49.44
2022-09-16T23:09:23.480Z,49.44
2022-09-16T23:11:53.376Z,49.48
2022-09-16T23:14:25.232Z,49.61
2022-09-16T23:16:57.884Z,49.52
2022-09-16T23:19:27.331Z,49.73
2022-09-16T23:21:56.568Z,49.70
2022-09-16T23:24:25.760Z,49.66
2022-09-16T23:26:54.925Z,49.79
2022-09-16T23:29:24.152Z,49.70
2022-09-16T23:31:54.326Z,49.77
2022-09-16T23:34:24.094Z,49.96
2022-09-16T23:36:53.140Z,49.97
2022-09-16T23:39:22.300Z,50.11
2022-09-16T23:41:51.953Z,50.12
2022-09-16T23:44:22.728Z,50.12
2022-09-16T23:46:52.803Z,50.29
2022-09-16T23:49:22.032Z,50.24
2022-09-16T23:51:50.701Z,50.27
2022-09-16T23:54:20.958Z,50.40
2022-09-16T23:56:50.472Z,50.56
2022-09-16T23:59:19.971Z,50.58
